sensor_id;sensor_type;location;lat;lon;timestamp;temperature;humidity
11536;DHT22;5824;49.336;8.652;2023-07-28T00:00:25;18.60;1.00
11536;DHT22;5824;49.336;8.652;2023-07-28T00:02:51;18.50;1.00
11536;DHT22;5824;49.336;8.652;2023-07-28T00:05:16;18.50;1.00
11536;DHT22;5824;49.336;8.652;2023-07-28T00:07:42;18.50;1.00
11536;DHT22;5824;49.336;8.652;2023-07-28T00:10:07;18.60;1.00
11536;DHT22;5824;49.336;8.652;2023-07-28T00:12:34;18.60;1.00
11536;DHT22;5824;49.336;8.652;2023-07-28T00:14:59;18.60;2.00
11536;DHT22;5824;49.336;8.652;2023-07-28T00:17:25;18.70;5.40
11536;DHT22;5824;49.336;8.652;2023-07-28T00:19:51;18.70;5.70
11536;DHT22;5824;49.336;8.652;2023-07-28T00:22:16;18.80;7.50
11536;DHT22;5824;49.336;8.652;2023-07-28T00:24:42;18.80;7.30
11536;DHT22;5824;49.336;8.652;2023-07-28T00:27:07;18.80;8.50
11536;DHT22;5824;49.336;8.652;2023-07-28T00:29:33;18.90;8.30
11536;DHT22;5824;49.336;8.652;2023-07-28T00:31:58;18.80;6.60
11536;DHT22;5824;49.336;8.652;2023-07-28T00:34:24;18.70;3.80
11536;DHT22;5824;49.336;8.652;2023-07-28T00:36:49;18.70;6.80
11536;DHT22;5824;49.336;8.652;2023-07-28T00:39:15;18.60;8.30
11536;DHT22;5824;49.336;8.652;2023-07-28T00:41:40;18.60;11.00
11536;DHT22;5824;49.336;8.652;2023-07-28T00:44:06;18.60;8.90
11536;DHT22;5824;49.336;8.652;2023-07-28T00:46:31;18.60;7.70
11536;DHT22;5824;49.336;8.652;2023-07-28T00:48:57;18.60;10.20
11536;DHT22;5824;49.336;8.652;2023-07-28T00:51:23;18.60;10.30
11536;DHT22;5824;49.336;8.652;2023-07-28T00:53:55;18.50;13.10
11536;DHT22;5824;49.336;8.652;2023-07-28T00:56:21;18.50;13.30
11536;DHT22;5824;49.336;8.652;2023-07-28T00:58:47;18.60;15.60
11536;DHT22;5824;49.336;8.652;2023-07-28T01:01:13;18.60;16.20
11536;DHT22;5824;49.336;8.652;2023-07-28T01:03:39;18.60;18.40
11536;DHT22;5824;49.336;8.652;2023-07-28T01:06:13;18.70;15.50
11536;DHT22;5824;49.336;8.652;2023-07-28T01:09:03;18.70;18.90
11536;DHT22;5824;49.336;8.652;2023-07-28T01:11:29;18.70;20.50
11536;DHT22;5824;49.336;8.652;2023-07-28T01:13:55;18.70;20.90
11536;DHT22;5824;49.336;8.652;2023-07-28T01:16:20;18.80;22.90
11536;DHT22;5824;49.336;8.652;2023-07-28T01:18:46;18.80;22.60
11536;DHT22;5824;49.336;8.652;2023-07-28T01:21:20;18.70;21.10
11536;DHT22;5824;49.336;8.652;2023-07-28T01:24:14;18.70;22.90
11536;DHT22;5824;49.336;8.652;2023-07-28T01:26:41;18.70;23.70
11536;DHT22;5824;49.336;8.652;2023-07-28T01:29:07;18.80;27.30
11536;DHT22;5824;49.336;8.652;2023-07-28T01:31:33;18.80;26.90
11536;DHT22;5824;49.336;8.652;2023-07-28T01:33:59;18.80;28.50
11536;DHT22;5824;49.336;8.652;2023-07-28T01:36:24;18.80;30.20
11536;DHT22;5824;49.336;8.652;2023-07-28T01:38:50;18.80;28.70
11536;DHT22;5824;49.336;8.652;2023-07-28T01:41:16;18.80;27.80
11536;DHT22;5824;49.336;8.652;2023-07-28T01:43:42;18.80;31.50
11536;DHT22;5824;49.336;8.652;2023-07-28T01:46:07;18.70;26.60
11536;DHT22;5824;49.336;8.652;2023-07-28T01:48:33;18.70;29.90
11536;DHT22;5824;49.336;8.652;2023-07-28T01:50:59;18.70;30.30
11536;DHT22;5824;49.336;8.652;2023-07-28T01:53:24;21.40;31.90
11536;DHT22;5824;49.336;8.652;2023-07-28T01:55:50;18.70;37.90
11536;DHT22;5824;49.336;8.652;2023-07-28T01:58:15;18.70;31.90
11536;DHT22;5824;49.336;8.652;2023-07-28T02:00:41;18.70;34.80
11536;DHT22;5824;49.336;8.652;2023-07-28T02:03:06;18.70;32.80
11536;DHT22;5824;49.336;8.652;2023-07-28T02:05:32;18.60;35.20
11536;DHT22;5824;49.336;8.652;2023-07-28T02:07:58;18.60;33.80
11536;DHT22;5824;49.336;8.652;2023-07-28T02:10:26;18.60;37.50
11536;DHT22;5824;49.336;8.652;2023-07-28T02:12:51;18.60;40.10
11536;DHT22;5824;49.336;8.652;2023-07-28T02:15:17;18.60;45.10
11536;DHT22;5824;49.336;8.652;2023-07-28T02:17:43;18.60;45.10
11536;DHT22;5824;49.336;8.652;2023-07-28T02:20:09;18.60;45.20
11536;DHT22;5824;49.336;8.652;2023-07-28T02:22:42;18.70;45.30
11536;DHT22;5824;49.336;8.652;2023-07-28T02:25:08;18.70;45.20
11536;DHT22;5824;49.336;8.652;2023-07-28T02:27:34;18.70;45.40
11536;DHT22;5824;49.336;8.652;2023-07-28T02:29:59;18.80;45.50
11536;DHT22;5824;49.336;8.652;2023-07-28T02:32:26;18.70;45.30
11536;DHT22;5824;49.336;8.652;2023-07-28T02:34:51;18.70;45.20
11536;DHT22;5824;49.336;8.652;2023-07-28T02:37:17;18.60;45.10
11536;DHT22;5824;49.336;8.652;2023-07-28T02:39:43;18.80;45.40
11536;DHT22;5824;49.336;8.652;2023-07-28T02:42:09;18.60;45.20
11536;DHT22;5824;49.336;8.652;2023-07-28T02:44:34;18.60;45.30
11536;DHT22;5824;49.336;8.652;2023-07-28T02:47:00;18.60;47.80
11536;DHT22;5824;49.336;8.652;2023-07-28T02:49:25;18.60;45.30
11536;DHT22;5824;49.336;8.652;2023-07-28T02:51:51;18.60;45.20
11536;DHT22;5824;49.336;8.652;2023-07-28T02:54:16;18.60;45.20
11536;DHT22;5824;49.336;8.652;2023-07-28T02:56:42;18.60;45.10
11536;DHT22;5824;49.336;8.652;2023-07-28T02:59:07;18.60;45.20
11536;DHT22;5824;49.336;8.652;2023-07-28T03:01:33;18.60;45.30
11536;DHT22;5824;49.336;8.652;2023-07-28T03:04:02;18.60;45.10
11536;DHT22;5824;49.336;8.652;2023-07-28T03:06:28;18.60;45.10
11536;DHT22;5824;49.336;8.652;2023-07-28T03:08:54;20.00;46.40
11536;DHT22;5824;49.336;8.652;2023-07-28T03:11:20;18.60;45.20
11536;DHT22;5824;49.336;8.652;2023-07-28T03:13:47;18.60;45.20
11536;DHT22;5824;49.336;8.652;2023-07-28T03:16:12;18.60;45.10
11536;DHT22;5824;49.336;8.652;2023-07-28T03:18:38;18.50;45.00
11536;DHT22;5824;49.336;8.652;2023-07-28T03:21:03;18.50;45.10
11536;DHT22;5824;49.336;8.652;2023-07-28T03:23:29;18.50;45.00
11536;DHT22;5824;49.336;8.652;2023-07-28T03:25:54;18.40;42.80
11536;DHT22;5824;49.336;8.652;2023-07-28T03:28:20;18.40;45.00
11536;DHT22;5824;49.336;8.652;2023-07-28T03:30:46;18.40;45.20
11536;DHT22;5824;49.336;8.652;2023-07-28T03:33:11;18.40;45.00
11536;DHT22;5824;49.336;8.652;2023-07-28T03:35:37;18.30;44.90
11536;DHT22;5824;49.336;8.652;2023-07-28T03:38:02;18.50;45.30
11536;DHT22;5824;49.336;8.652;2023-07-28T03:40:28;18.50;48.50
11536;DHT22;5824;49.336;8.652;2023-07-28T03:42:54;18.50;45.10
11536;DHT22;5824;49.336;8.652;2023-07-28T03:45:20;18.50;45.10
11536;DHT22;5824;49.336;8.652;2023-07-28T03:47:46;18.50;45.30
11536;DHT22;5824;49.336;8.652;2023-07-28T03:50:11;18.50;45.90
11536;DHT22;5824;49.336;8.652;2023-07-28T03:52:37;18.40;45.10
11536;DHT22;5824;49.336;8.652;2023-07-28T03:55:03;18.40;45.20
11536;DHT22;5824;49.336;8.652;2023-07-28T03:57:28;18.40;45.00
11536;DHT22;5824;49.336;8.652;2023-07-28T03:59:54;18.40;45.30
11536;DHT22;5824;49.336;8.652;2023-07-28T04:02:19;18.40;50.30
11536;DHT22;5824;49.336;8.652;2023-07-28T04:04:45;18.40;50.50
11536;DHT22;5824;49.336;8.652;2023-07-28T04:07:10;18.30;47.90
11536;DHT22;5824;49.336;8.652;2023-07-28T04:09:36;18.30;52.80
11536;DHT22;5824;49.336;8.652;2023-07-28T04:12:01;18.40;56.20
11536;DHT22;5824;49.336;8.652;2023-07-28T04:14:27;18.40;55.90
11536;DHT22;5824;49.336;8.652;2023-07-28T04:16:52;18.30;54.70
11536;DHT22;5824;49.336;8.652;2023-07-28T04:19:18;18.40;53.80
11536;DHT22;5824;49.336;8.652;2023-07-28T04:21:43;18.40;57.80
11536;DHT22;5824;49.336;8.652;2023-07-28T04:24:09;18.40;53.80
11536;DHT22;5824;49.336;8.652;2023-07-28T04:26:35;18.30;54.40
11536;DHT22;5824;49.336;8.652;2023-07-28T04:29:01;18.40;56.70
11536;DHT22;5824;49.336;8.652;2023-07-28T04:31:26;18.40;57.20
11536;DHT22;5824;49.336;8.652;2023-07-28T04:33:52;18.40;58.80
11536;DHT22;5824;49.336;8.652;2023-07-28T04:36:17;18.40;58.30
11536;DHT22;5824;49.336;8.652;2023-07-28T04:38:43;18.40;53.60
11536;DHT22;5824;49.336;8.652;2023-07-28T04:41:09;18.30;57.90
11536;DHT22;5824;49.336;8.652;2023-07-28T04:43:34;18.30;52.80
11536;DHT22;5824;49.336;8.652;2023-07-28T04:46:00;18.30;54.80
11536;DHT22;5824;49.336;8.652;2023-07-28T04:48:26;18.30;57.70
11536;DHT22;5824;49.336;8.652;2023-07-28T04:50:51;18.40;63.00
11536;DHT22;5824;49.336;8.652;2023-07-28T04:53:17;18.50;65.50
11536;DHT22;5824;49.336;8.652;2023-07-28T04:55:42;18.60;64.90
11536;DHT22;5824;49.336;8.652;2023-07-28T04:58:08;18.50;60.40
11536;DHT22;5824;49.336;8.652;2023-07-28T05:00:33;18.50;63.10
11536;DHT22;5824;49.336;8.652;2023-07-28T05:02:59;18.70;58.10
11536;DHT22;5824;49.336;8.652;2023-07-28T05:05:24;18.40;53.60
11536;DHT22;5824;49.336;8.652;2023-07-28T05:07:50;18.40;55.90
11536;DHT22;5824;49.336;8.652;2023-07-28T05:10:16;18.40;53.70
11536;DHT22;5824;49.336;8.652;2023-07-28T05:12:41;18.50;58.90
11536;DHT22;5824;49.336;8.652;2023-07-28T05:15:07;18.40;53.10
11536;DHT22;5824;49.336;8.652;2023-07-28T05:17:36;18.30;45.00
11536;DHT22;5824;49.336;8.652;2023-07-28T05:20:02;18.30;45.10
11536;DHT22;5824;49.336;8.652;2023-07-28T05:22:27;18.20;45.00
11536;DHT22;5824;49.336;8.652;2023-07-28T05:24:53;18.20;48.10
11536;DHT22;5824;49.336;8.652;2023-07-28T05:27:18;18.30;50.50
11536;DHT22;5824;49.336;8.652;2023-07-28T05:29:44;18.30;53.80
11536;DHT22;5824;49.336;8.652;2023-07-28T05:32:10;18.40;57.40
11536;DHT22;5824;49.336;8.652;2023-07-28T05:34:35;18.40;53.90
11536;DHT22;5824;49.336;8.652;2023-07-28T05:37:01;18.40;53.10
11536;DHT22;5824;49.336;8.652;2023-07-28T05:39:26;18.40;55.20
11536;DHT22;5824;49.336;8.652;2023-07-28T05:41:52;18.50;54.30
11536;DHT22;5824;49.336;8.652;2023-07-28T05:44:17;18.50;49.20
11536;DHT22;5824;49.336;8.652;2023-07-28T05:46:43;18.40;51.00
11536;DHT22;5824;49.336;8.652;2023-07-28T05:49:09;18.30;45.00
11536;DHT22;5824;49.336;8.652;2023-07-28T05:51:35;18.30;45.30
11536;DHT22;5824;49.336;8.652;2023-07-28T05:54:00;18.20;45.10
11536;DHT22;5824;49.336;8.652;2023-07-28T05:56:26;18.20;55.30
11536;DHT22;5824;49.336;8.652;2023-07-28T05:58:52;18.30;58.90
11536;DHT22;5824;49.336;8.652;2023-07-28T06:01:17;18.30;52.00
11536;DHT22;5824;49.336;8.652;2023-07-28T06:03:44;18.30;55.80
11536;DHT22;5824;49.336;8.652;2023-07-28T06:06:09;18.40;60.10
11536;DHT22;5824;49.336;8.652;2023-07-28T06:08:35;18.40;62.80
11536;DHT22;5824;49.336;8.652;2023-07-28T06:11:04;18.40;61.50
11536;DHT22;5824;49.336;8.652;2023-07-28T06:13:31;18.50;63.20
11536;DHT22;5824;49.336;8.652;2023-07-28T06:15:56;18.50;54.90
11536;DHT22;5824;49.336;8.652;2023-07-28T06:18:23;18.50;57.80
11536;DHT22;5824;49.336;8.652;2023-07-28T06:20:49;18.60;60.50
11536;DHT22;5824;49.336;8.652;2023-07-28T06:23:14;18.60;57.10
11536;DHT22;5824;49.336;8.652;2023-07-28T06:25:40;18.60;53.30
11536;DHT22;5824;49.336;8.652;2023-07-28T06:28:10;18.60;47.30
11536;DHT22;5824;49.336;8.652;2023-07-28T06:30:36;18.60;45.40
11536;DHT22;5824;49.336;8.652;2023-07-28T06:33:02;18.70;55.80
11536;DHT22;5824;49.336;8.652;2023-07-28T06:35:28;18.70;45.30
11536;DHT22;5824;49.336;8.652;2023-07-28T06:37:54;18.70;45.40
11536;DHT22;5824;49.336;8.652;2023-07-28T06:40:19;18.60;45.20
11536;DHT22;5824;49.336;8.652;2023-07-28T06:42:45;18.60;45.30
11536;DHT22;5824;49.336;8.652;2023-07-28T06:45:12;18.70;45.40
11536;DHT22;5824;49.336;8.652;2023-07-28T06:47:37;18.80;51.30
11536;DHT22;5824;49.336;8.652;2023-07-28T06:50:03;18.90;45.50
11536;DHT22;5824;49.336;8.652;2023-07-28T06:52:30;18.90;45.50
11536;DHT22;5824;49.336;8.652;2023-07-28T06:54:56;18.90;45.60
11536;DHT22;5824;49.336;8.652;2023-07-28T06:57:22;18.90;45.70
11536;DHT22;5824;49.336;8.652;2023-07-28T07:02:13;19.00;43.40
11536;DHT22;5824;49.336;8.652;2023-07-28T07:04:39;19.00;45.50
11536;DHT22;5824;49.336;8.652;2023-07-28T07:07:05;19.00;45.50
11536;DHT22;5824;49.336;8.652;2023-07-28T07:09:30;19.00;45.40
11536;DHT22;5824;49.336;8.652;2023-07-28T07:11:56;19.00;45.60
11536;DHT22;5824;49.336;8.652;2023-07-28T07:14:22;19.10;45.50
11536;DHT22;5824;49.336;8.652;2023-07-28T07:16:48;19.10;45.20
11536;DHT22;5824;49.336;8.652;2023-07-28T07:19:14;19.10;40.30
11536;DHT22;5824;49.336;8.652;2023-07-28T07:21:41;19.20;37.90
11536;DHT22;5824;49.336;8.652;2023-07-28T07:24:07;19.20;42.80
11536;DHT22;5824;49.336;8.652;2023-07-28T07:26:33;19.30;43.60
11536;DHT22;5824;49.336;8.652;2023-07-28T07:28:58;19.40;45.90
11536;DHT22;5824;49.336;8.652;2023-07-28T07:33:50;19.40;36.30
11536;DHT22;5824;49.336;8.652;2023-07-28T07:36:17;19.50;34.80
11536;DHT22;5824;49.336;8.652;2023-07-28T07:38:43;19.40;34.30
11536;DHT22;5824;49.336;8.652;2023-07-28T07:43:38;19.40;31.00
11536;DHT22;5824;49.336;8.652;2023-07-28T07:46:04;19.40;33.00
11536;DHT22;5824;49.336;8.652;2023-07-28T07:48:29;19.40;35.90
11536;DHT22;5824;49.336;8.652;2023-07-28T07:50:55;19.40;32.30
11536;DHT22;5824;49.336;8.652;2023-07-28T07:53:21;19.50;33.30
11536;DHT22;5824;49.336;8.652;2023-07-28T07:55:47;19.50;29.00
11536;DHT22;5824;49.336;8.652;2023-07-28T07:58:13;19.50;34.10
11536;DHT22;5824;49.336;8.652;2023-07-28T08:00:38;19.50;27.50
11536;DHT22;5824;49.336;8.652;2023-07-28T08:03:04;19.40;30.00
11536;DHT22;5824;49.336;8.652;2023-07-28T08:05:30;19.40;30.60
11536;DHT22;5824;49.336;8.652;2023-07-28T08:07:56;19.40;34.80
11536;DHT22;5824;49.336;8.652;2023-07-28T08:10:22;19.40;27.50
11536;DHT22;5824;49.336;8.652;2023-07-28T08:12:48;19.30;24.00
11536;DHT22;5824;49.336;8.652;2023-07-28T08:15:13;19.40;25.50
11536;DHT22;5824;49.336;8.652;2023-07-28T08:17:39;19.40;20.30
11536;DHT22;5824;49.336;8.652;2023-07-28T08:20:09;19.60;25.80
11536;DHT22;5824;49.336;8.652;2023-07-28T08:22:35;19.80;18.30
11536;DHT22;5824;49.336;8.652;2023-07-28T08:25:00;20.10;17.80
11536;DHT22;5824;49.336;8.652;2023-07-28T08:27:26;20.50;16.20
11536;DHT22;5824;49.336;8.652;2023-07-28T08:29:51;20.90;5.70
11536;DHT22;5824;49.336;8.652;2023-07-28T08:32:17;21.20;1.00
11536;DHT22;5824;49.336;8.652;2023-07-28T08:34:42;21.30;1.00
11536;DHT22;5824;49.336;8.652;2023-07-28T08:37:08;21.20;1.00
11536;DHT22;5824;49.336;8.652;2023-07-28T08:39:34;21.00;1.00
11536;DHT22;5824;49.336;8.652;2023-07-28T08:42:01;21.40;1.00
11536;DHT22;5824;49.336;8.652;2023-07-28T08:44:30;21.50;1.00
11536;DHT22;5824;49.336;8.652;2023-07-28T08:46:56;21.70;1.00
11536;DHT22;5824;49.336;8.652;2023-07-28T08:49:21;21.70;1.00
11536;DHT22;5824;49.336;8.652;2023-07-28T08:51:52;21.80;1.00
11536;DHT22;5824;49.336;8.652;2023-07-28T08:54:17;21.80;1.00
11536;DHT22;5824;49.336;8.652;2023-07-28T08:56:43;21.50;1.00
11536;DHT22;5824;49.336;8.652;2023-07-28T08:59:09;21.40;1.00
11536;DHT22;5824;49.336;8.652;2023-07-28T09:01:41;21.30;1.00
11536;DHT22;5824;49.336;8.652;2023-07-28T09:04:10;21.40;1.00
11536;DHT22;5824;49.336;8.652;2023-07-28T09:06:37;21.60;1.00
11536;DHT22;5824;49.336;8.652;2023-07-28T09:09:06;21.80;1.00
11536;DHT22;5824;49.336;8.652;2023-07-28T09:11:32;22.30;1.00
11536;DHT22;5824;49.336;8.652;2023-07-28T09:14:00;22.50;1.00
11536;DHT22;5824;49.336;8.652;2023-07-28T09:16:26;23.00;1.00
11536;DHT22;5824;49.336;8.652;2023-07-28T09:19:07;23.50;1.00
11536;DHT22;5824;49.336;8.652;2023-07-28T09:21:32;23.40;1.00
11536;DHT22;5824;49.336;8.652;2023-07-28T09:24:00;23.30;1.00
11536;DHT22;5824;49.336;8.652;2023-07-28T09:29:13;23.10;1.00
11536;DHT22;5824;49.336;8.652;2023-07-28T09:31:40;24.70;1.00
11536;DHT22;5824;49.336;8.652;2023-07-28T09:34:09;26.40;1.00
11536;DHT22;5824;49.336;8.652;2023-07-28T09:36:35;28.20;1.00
11536;DHT22;5824;49.336;8.652;2023-07-28T09:39:02;27.80;1.00
11536;DHT22;5824;49.336;8.652;2023-07-28T09:41:32;28.30;1.00
11536;DHT22;5824;49.336;8.652;2023-07-28T09:43:59;28.00;1.00
11536;DHT22;5824;49.336;8.652;2023-07-28T09:46:27;27.30;1.00
11536;DHT22;5824;49.336;8.652;2023-07-28T09:48:56;27.40;1.00
11536;DHT22;5824;49.336;8.652;2023-07-28T09:51:29;27.00;1.00
11536;DHT22;5824;49.336;8.652;2023-07-28T09:54:05;26.50;1.00
11536;DHT22;5824;49.336;8.652;2023-07-28T09:56:31;26.00;1.00
11536;DHT22;5824;49.336;8.652;2023-07-28T09:58:58;25.40;1.00
11536;DHT22;5824;49.336;8.652;2023-07-28T10:01:24;25.20;1.00
11536;DHT22;5824;49.336;8.652;2023-07-28T10:03:51;25.00;1.00
11536;DHT22;5824;49.336;8.652;2023-07-28T10:06:19;25.20;1.00
11536;DHT22;5824;49.336;8.652;2023-07-28T10:08:45;25.50;1.00
11536;DHT22;5824;49.336;8.652;2023-07-28T10:11:15;26.80;1.00
11536;DHT22;5824;49.336;8.652;2023-07-28T10:13:43;27.90;1.00
11536;DHT22;5824;49.336;8.652;2023-07-28T10:16:10;28.50;1.00
11536;DHT22;5824;49.336;8.652;2023-07-28T10:18:36;28.70;1.00
11536;DHT22;5824;49.336;8.652;2023-07-28T10:21:15;30.20;1.00
11536;DHT22;5824;49.336;8.652;2023-07-28T10:23:41;30.80;1.00
11536;DHT22;5824;49.336;8.652;2023-07-28T10:26:06;31.10;1.00
11536;DHT22;5824;49.336;8.652;2023-07-28T10:28:38;31.20;1.00
11536;DHT22;5824;49.336;8.652;2023-07-28T10:31:07;30.20;1.00
11536;DHT22;5824;49.336;8.652;2023-07-28T10:33:44;29.00;1.00
11536;DHT22;5824;49.336;8.652;2023-07-28T10:36:16;27.10;1.00
11536;DHT22;5824;49.336;8.652;2023-07-28T10:38:42;27.10;1.00
11536;DHT22;5824;49.336;8.652;2023-07-28T10:41:18;26.00;1.00
11536;DHT22;5824;49.336;8.652;2023-07-28T10:43:45;25.30;1.00
11536;DHT22;5824;49.336;8.652;2023-07-28T10:46:14;24.80;1.00
11536;DHT22;5824;49.336;8.652;2023-07-28T10:48:46;24.80;1.00
11536;DHT22;5824;49.336;8.652;2023-07-28T10:51:26;24.80;1.00
11536;DHT22;5824;49.336;8.652;2023-07-28T10:53:57;25.00;1.00
11536;DHT22;5824;49.336;8.652;2023-07-28T10:56:23;25.10;1.00
11536;DHT22;5824;49.336;8.652;2023-07-28T10:58:59;25.20;1.00
11536;DHT22;5824;49.336;8.652;2023-07-28T11:01:32;25.60;1.00
11536;DHT22;5824;49.336;8.652;2023-07-28T11:04:26;25.80;1.00
11536;DHT22;5824;49.336;8.652;2023-07-28T11:06:52;25.20;1.00
11536;DHT22;5824;49.336;8.652;2023-07-28T11:09:19;24.80;1.00
11536;DHT22;5824;49.336;8.652;2023-07-28T11:11:47;24.70;1.00
11536;DHT22;5824;49.336;8.652;2023-07-28T11:14:15;24.60;1.00
11536;DHT22;5824;49.336;8.652;2023-07-28T11:16:41;24.40;1.00
11536;DHT22;5824;49.336;8.652;2023-07-28T11:19:09;24.20;1.00
11536;DHT22;5824;49.336;8.652;2023-07-28T11:21:39;24.10;1.00
11536;DHT22;5824;49.336;8.652;2023-07-28T11:24:07;23.80;1.00
11536;DHT22;5824;49.336;8.652;2023-07-28T11:26:37;23.70;1.00
11536;DHT22;5824;49.336;8.652;2023-07-28T11:29:03;23.70;1.00
11536;DHT22;5824;49.336;8.652;2023-07-28T11:31:30;23.60;1.00
11536;DHT22;5824;49.336;8.652;2023-07-28T11:33:55;23.50;1.00
11536;DHT22;5824;49.336;8.652;2023-07-28T11:36:24;23.40;1.00
11536;DHT22;5824;49.336;8.652;2023-07-28T11:38:51;23.40;1.00
11536;DHT22;5824;49.336;8.652;2023-07-28T11:41:17;23.70;1.00
11536;DHT22;5824;49.336;8.652;2023-07-28T11:43:43;24.10;1.00
11536;DHT22;5824;49.336;8.652;2023-07-28T11:49:15;24.90;1.00
11536;DHT22;5824;49.336;8.652;2023-07-28T11:51:43;24.80;1.00
11536;DHT22;5824;49.336;8.652;2023-07-28T11:54:13;24.70;1.00
11536;DHT22;5824;49.336;8.652;2023-07-28T11:56:45;24.90;1.00
11536;DHT22;5824;49.336;8.652;2023-07-28T11:59:14;25.10;1.00
11536;DHT22;5824;49.336;8.652;2023-07-28T12:04:23;24.30;1.00
11536;DHT22;5824;49.336;8.652;2023-07-28T12:07:10;24.20;1.00
11536;DHT22;5824;49.336;8.652;2023-07-28T12:12:15;24.20;1.00
11536;DHT22;5824;49.336;8.652;2023-07-28T12:14:41;23.90;1.00
11536;DHT22;5824;49.336;8.652;2023-07-28T12:17:23;23.60;1.00
11536;DHT22;5824;49.336;8.652;2023-07-28T12:20:08;23.30;1.00
11536;DHT22;5824;49.336;8.652;2023-07-28T12:22:43;22.70;1.00
11536;DHT22;5824;49.336;8.652;2023-07-28T12:25:10;22.20;1.00
11536;DHT22;5824;49.336;8.652;2023-07-28T12:27:36;22.00;1.00
11536;DHT22;5824;49.336;8.652;2023-07-28T12:30:03;22.00;1.00
11536;DHT22;5824;49.336;8.652;2023-07-28T12:32:28;21.90;1.00
11536;DHT22;5824;49.336;8.652;2023-07-28T12:34:54;22.00;1.00
11536;DHT22;5824;49.336;8.652;2023-07-28T12:37:20;22.10;1.00
11536;DHT22;5824;49.336;8.652;2023-07-28T12:39:46;22.10;1.00
11536;DHT22;5824;49.336;8.652;2023-07-28T12:42:12;22.10;1.00
11536;DHT22;5824;49.336;8.652;2023-07-28T12:44:38;21.90;1.00
11536;DHT22;5824;49.336;8.652;2023-07-28T12:47:04;21.90;1.00
11536;DHT22;5824;49.336;8.652;2023-07-28T12:49:30;21.70;1.00
11536;DHT22;5824;49.336;8.652;2023-07-28T12:51:57;21.50;1.00
11536;DHT22;5824;49.336;8.652;2023-07-28T12:54:23;21.30;1.00
11536;DHT22;5824;49.336;8.652;2023-07-28T12:56:49;21.00;1.00
11536;DHT22;5824;49.336;8.652;2023-07-28T12:59:15;21.00;1.00
11536;DHT22;5824;49.336;8.652;2023-07-28T13:01:40;20.90;1.00
11536;DHT22;5824;49.336;8.652;2023-07-28T13:04:06;20.90;1.00
11536;DHT22;5824;49.336;8.652;2023-07-28T13:06:32;20.90;1.00
11536;DHT22;5824;49.336;8.652;2023-07-28T13:08:58;20.90;1.00
11536;DHT22;5824;49.336;8.652;2023-07-28T13:11:23;20.80;1.00
11536;DHT22;5824;49.336;8.652;2023-07-28T13:13:49;20.70;1.00
11536;DHT22;5824;49.336;8.652;2023-07-28T13:16:15;20.70;1.00
11536;DHT22;5824;49.336;8.652;2023-07-28T13:18:42;20.80;1.00
11536;DHT22;5824;49.336;8.652;2023-07-28T13:21:07;21.00;1.00
11536;DHT22;5824;49.336;8.652;2023-07-28T13:23:33;21.00;1.00
11536;DHT22;5824;49.336;8.652;2023-07-28T13:25:58;21.00;1.00
11536;DHT22;5824;49.336;8.652;2023-07-28T13:28:24;21.00;1.00
11536;DHT22;5824;49.336;8.652;2023-07-28T13:30:51;21.00;1.00
11536;DHT22;5824;49.336;8.652;2023-07-28T13:33:16;21.00;1.00
11536;DHT22;5824;49.336;8.652;2023-07-28T13:35:42;20.90;1.00
11536;DHT22;5824;49.336;8.652;2023-07-28T13:38:07;20.90;1.00
11536;DHT22;5824;49.336;8.652;2023-07-28T13:40:34;20.90;1.00
11536;DHT22;5824;49.336;8.652;2023-07-28T13:43:00;20.90;1.00
11536;DHT22;5824;49.336;8.652;2023-07-28T13:45:25;20.90;1.00
11536;DHT22;5824;49.336;8.652;2023-07-28T13:47:51;20.90;1.00
11536;DHT22;5824;49.336;8.652;2023-07-28T13:50:16;20.80;1.00
11536;DHT22;5824;49.336;8.652;2023-07-28T13:52:42;20.60;1.00
11536;DHT22;5824;49.336;8.652;2023-07-28T13:55:08;20.50;1.00
11536;DHT22;5824;49.336;8.652;2023-07-28T13:57:33;20.30;1.00
11536;DHT22;5824;49.336;8.652;2023-07-28T13:59:59;20.40;1.00
11536;DHT22;5824;49.336;8.652;2023-07-28T14:02:25;20.40;1.00
11536;DHT22;5824;49.336;8.652;2023-07-28T14:04:50;20.10;1.00
11536;DHT22;5824;49.336;8.652;2023-07-28T14:07:16;20.10;1.00
11536;DHT22;5824;49.336;8.652;2023-07-28T14:09:41;20.10;1.00
11536;DHT22;5824;49.336;8.652;2023-07-28T14:12:07;20.10;1.00
11536;DHT22;5824;49.336;8.652;2023-07-28T14:14:33;20.30;1.00
11536;DHT22;5824;49.336;8.652;2023-07-28T14:16:58;20.30;1.00
11536;DHT22;5824;49.336;8.652;2023-07-28T14:19:24;20.30;1.00
11536;DHT22;5824;49.336;8.652;2023-07-28T14:21:49;20.80;1.00
11536;DHT22;5824;49.336;8.652;2023-07-28T14:24:15;20.40;1.00
11536;DHT22;5824;49.336;8.652;2023-07-28T14:26:40;20.40;1.00
11536;DHT22;5824;49.336;8.652;2023-07-28T14:29:06;20.40;1.00
11536;DHT22;5824;49.336;8.652;2023-07-28T14:31:32;20.50;1.00
11536;DHT22;5824;49.336;8.652;2023-07-28T14:33:57;20.50;1.00
11536;DHT22;5824;49.336;8.652;2023-07-28T14:36:23;20.40;1.00
11536;DHT22;5824;49.336;8.652;2023-07-28T14:38:48;20.40;1.00
11536;DHT22;5824;49.336;8.652;2023-07-28T14:41:14;20.50;1.00
11536;DHT22;5824;49.336;8.652;2023-07-28T14:43:40;20.50;1.00
11536;DHT22;5824;49.336;8.652;2023-07-28T14:46:05;20.40;1.00
11536;DHT22;5824;49.336;8.652;2023-07-28T14:48:31;20.40;1.00
11536;DHT22;5824;49.336;8.652;2023-07-28T14:50:56;20.40;1.00
11536;DHT22;5824;49.336;8.652;2023-07-28T14:53:38;20.40;1.00
11536;DHT22;5824;49.336;8.652;2023-07-28T14:56:05;20.40;1.00
11536;DHT22;5824;49.336;8.652;2023-07-28T14:58:31;20.40;1.00
11536;DHT22;5824;49.336;8.652;2023-07-28T15:00:57;20.40;1.00
11536;DHT22;5824;49.336;8.652;2023-07-28T15:03:25;20.40;1.00
11536;DHT22;5824;49.336;8.652;2023-07-28T15:05:51;20.20;1.00
11536;DHT22;5824;49.336;8.652;2023-07-28T15:08:16;20.10;1.00
11536;DHT22;5824;49.336;8.652;2023-07-28T15:10:42;20.00;1.00
11536;DHT22;5824;49.336;8.652;2023-07-28T15:13:07;20.00;1.00
11536;DHT22;5824;49.336;8.652;2023-07-28T15:15:33;20.10;1.00
11536;DHT22;5824;49.336;8.652;2023-07-28T15:17:58;20.10;1.00
11536;DHT22;5824;49.336;8.652;2023-07-28T15:20:24;20.00;1.00
11536;DHT22;5824;49.336;8.652;2023-07-28T15:22:49;20.00;1.00
11536;DHT22;5824;49.336;8.652;2023-07-28T15:25:15;20.10;1.00
11536;DHT22;5824;49.336;8.652;2023-07-28T15:27:41;20.00;1.00
11536;DHT22;5824;49.336;8.652;2023-07-28T15:30:08;20.10;1.00
11536;DHT22;5824;49.336;8.652;2023-07-28T15:32:35;20.00;1.00
11536;DHT22;5824;49.336;8.652;2023-07-28T15:35:01;20.00;1.00
11536;DHT22;5824;49.336;8.652;2023-07-28T15:37:28;20.00;1.00
11536;DHT22;5824;49.336;8.652;2023-07-28T15:39:53;20.00;1.00
11536;DHT22;5824;49.336;8.652;2023-07-28T15:42:19;20.00;1.00
11536;DHT22;5824;49.336;8.652;2023-07-28T15:44:45;20.00;1.00
11536;DHT22;5824;49.336;8.652;2023-07-28T15:47:11;20.00;1.00
11536;DHT22;5824;49.336;8.652;2023-07-28T15:49:37;20.00;3.30
11536;DHT22;5824;49.336;8.652;2023-07-28T15:52:02;20.00;1.70
11536;DHT22;5824;49.336;8.652;2023-07-28T15:54:28;19.90;2.50
11536;DHT22;5824;49.336;8.652;2023-07-28T15:56:54;20.00;1.00
11536;DHT22;5824;49.336;8.652;2023-07-28T15:59:19;20.00;1.80
11536;DHT22;5824;49.336;8.652;2023-07-28T16:01:45;19.90;1.60
11536;DHT22;5824;49.336;8.652;2023-07-28T16:04:10;19.90;4.90
11536;DHT22;5824;49.336;8.652;2023-07-28T16:06:36;19.90;1.00
11536;DHT22;5824;49.336;8.652;2023-07-28T16:09:01;19.90;3.60